sensor_id;sensor_type;location;lat;lon;timestamp;P1;durP1;ratioP1;P2;durP2;ratioP2
22715;SDS011;11525;51.152;4.456;2022-12-18T00:01:14;150.40;;;73.90;;
22715;SDS011;11525;51.152;4.456;2022-12-18T00:03:41;144.52;;;71.97;;
22715;SDS011;11525;51.152;4.456;2022-12-18T00:06:07;136.65;;;71.28;;
22715;SDS011;11525;51.152;4.456;2022-12-18T00:08:34;139.57;;;70.47;;
22715;SDS011;11525;51.152;4.456;2022-12-18T00:11:03;139.55;;;71.60;;
22715;SDS011;11525;51.152;4.456;2022-12-18T00:13:30;134.13;;;69.60;;
22715;SDS011;11525;51.152;4.456;2022-12-18T00:16:01;139.10;;;69.38;;
22715;SDS011;11525;51.152;4.456;2022-12-18T00:18:32;131.82;;;68.03;;
22715;SDS011;11525;51.152;4.456;2022-12-18T00:20:58;133.65;;;68.90;;
22715;SDS011;11525;51.152;4.456;2022-12-18T00:23:26;129.02;;;66.10;;
22715;SDS011;11525;51.152;4.456;2022-12-18T00:25:52;130.73;;;65.68;;
22715;SDS011;11525;51.152;4.456;2022-12-18T00:28:18;137.98;;;68.45;;
22715;SDS011;11525;51.152;4.456;2022-12-18T00:30:44;137.63;;;68.05;;
22715;SDS011;11525;51.152;4.456;2022-12-18T00:33:10;135.63;;;67.53;;
22715;SDS011;11525;51.152;4.456;2022-12-18T00:35:36;128.07;;;65.53;;
22715;SDS011;11525;51.152;4.456;2022-12-18T00:38:01;129.20;;;64.80;;
22715;SDS011;11525;51.152;4.456;2022-12-18T00:40:27;132.98;;;68.10;;
22715;SDS011;11525;51.152;4.456;2022-12-18T00:42:53;130.73;;;63.28;;
22715;SDS011;11525;51.152;4.456;2022-12-18T00:45:26;125.57;;;65.35;;
22715;SDS011;11525;51.152;4.456;2022-12-18T00:47:53;127.85;;;65.15;;
22715;SDS011;11525;51.152;4.456;2022-12-18T00:50:23;123.75;;;65.30;;
22715;SDS011;11525;51.152;4.456;2022-12-18T00:52:50;123.32;;;63.35;;
22715;SDS011;11525;51.152;4.456;2022-12-18T00:55:16;134.00;;;67.78;;
22715;SDS011;11525;51.152;4.456;2022-12-18T00:57:45;135.20;;;66.85;;
22715;SDS011;11525;51.152;4.456;2022-12-18T01:00:12;126.30;;;64.10;;
22715;SDS011;11525;51.152;4.456;2022-12-18T01:02:40;126.47;;;66.90;;
22715;SDS011;11525;51.152;4.456;2022-12-18T01:05:06;134.88;;;67.55;;
22715;SDS011;11525;51.152;4.456;2022-12-18T01:07:34;126.35;;;63.35;;
22715;SDS011;11525;51.152;4.456;2022-12-18T01:10:04;127.55;;;64.72;;
22715;SDS011;11525;51.152;4.456;2022-12-18T01:12:30;130.77;;;67.35;;
22715;SDS011;11525;51.152;4.456;2022-12-18T01:15:12;126.88;;;64.90;;
22715;SDS011;11525;51.152;4.456;2022-12-18T01:17:46;130.93;;;67.55;;
22715;SDS011;11525;51.152;4.456;2022-12-18T01:20:33;130.43;;;65.22;;
22715;SDS011;11525;51.152;4.456;2022-12-18T01:22:59;137.10;;;68.38;;
22715;SDS011;11525;51.152;4.456;2022-12-18T01:25:25;131.43;;;65.50;;
22715;SDS011;11525;51.152;4.456;2022-12-18T01:28:16;134.35;;;68.18;;
22715;SDS011;11525;51.152;4.456;2022-12-18T01:30:42;129.30;;;65.70;;
22715;SDS011;11525;51.152;4.456;2022-12-18T01:33:14;122.55;;;64.95;;
22715;SDS011;11525;51.152;4.456;2022-12-18T01:39:40;129.60;;;63.80;;
22715;SDS011;11525;51.152;4.456;2022-12-18T01:42:19;113.65;;;59.42;;
22715;SDS011;11525;51.152;4.456;2022-12-18T01:45:05;117.50;;;59.92;;
22715;SDS011;11525;51.152;4.456;2022-12-18T01:47:50;114.50;;;59.47;;
22715;SDS011;11525;51.152;4.456;2022-12-18T01:50:31;112.53;;;58.47;;
22715;SDS011;11525;51.152;4.456;2022-12-18T01:53:07;114.28;;;58.45;;
22715;SDS011;11525;51.152;4.456;2022-12-18T01:55:38;113.20;;;58.65;;
22715;SDS011;11525;51.152;4.456;2022-12-18T01:58:16;117.37;;;60.30;;
22715;SDS011;11525;51.152;4.456;2022-12-18T02:00:43;118.95;;;60.45;;
22715;SDS011;11525;51.152;4.456;2022-12-18T02:03:09;115.60;;;60.35;;
22715;SDS011;11525;51.152;4.456;2022-12-18T02:05:38;110.43;;;57.20;;
22715;SDS011;11525;51.152;4.456;2022-12-18T02:08:20;112.03;;;59.50;;
22715;SDS011;11525;51.152;4.456;2022-12-18T02:17:21;109.88;;;55.47;;
22715;SDS011;11525;51.152;4.456;2022-12-18T02:27:20;113.22;;;58.00;;
22715;SDS011;11525;51.152;4.456;2022-12-18T02:32:17;105.93;;;57.45;;
22715;SDS011;11525;51.152;4.456;2022-12-18T02:34:48;101.32;;;54.88;;
22715;SDS011;11525;51.152;4.456;2022-12-18T02:37:16;103.05;;;54.13;;
22715;SDS011;11525;51.152;4.456;2022-12-18T02:39:46;97.25;;;52.30;;
22715;SDS011;11525;51.152;4.456;2022-12-18T02:42:14;101.53;;;53.95;;
22715;SDS011;11525;51.152;4.456;2022-12-18T02:44:41;101.32;;;53.58;;
22715;SDS011;11525;51.152;4.456;2022-12-18T02:47:12;98.43;;;53.00;;
22715;SDS011;11525;51.152;4.456;2022-12-18T03:01:25;89.72;;;49.80;;
22715;SDS011;11525;51.152;4.456;2022-12-18T03:06:23;99.03;;;50.63;;
22715;SDS011;11525;51.152;4.456;2022-12-18T03:09:02;100.20;;;49.72;;
22715;SDS011;11525;51.152;4.456;2022-12-18T03:11:32;94.03;;;49.45;;
22715;SDS011;11525;51.152;4.456;2022-12-18T03:14:20;89.32;;;48.03;;
22715;SDS011;11525;51.152;4.456;2022-12-18T03:16:49;93.85;;;49.00;;
22715;SDS011;11525;51.152;4.456;2022-12-18T03:19:20;90.35;;;49.80;;
22715;SDS011;11525;51.152;4.456;2022-12-18T03:21:49;89.75;;;48.20;;
22715;SDS011;11525;51.152;4.456;2022-12-18T03:24:19;87.20;;;46.92;;
22715;SDS011;11525;51.152;4.456;2022-12-18T03:26:47;88.10;;;46.60;;
22715;SDS011;11525;51.152;4.456;2022-12-18T03:29:20;83.25;;;45.33;;
22715;SDS011;11525;51.152;4.456;2022-12-18T03:31:51;83.82;;;45.80;;
22715;SDS011;11525;51.152;4.456;2022-12-18T03:34:26;87.43;;;45.15;;
22715;SDS011;11525;51.152;4.456;2022-12-18T03:36:58;86.13;;;45.28;;
22715;SDS011;11525;51.152;4.456;2022-12-18T03:39:24;83.30;;;44.80;;
22715;SDS011;11525;51.152;4.456;2022-12-18T03:45:06;77.13;;;43.40;;
22715;SDS011;11525;51.152;4.456;2022-12-18T03:47:45;75.75;;;42.00;;
22715;SDS011;11525;51.152;4.456;2022-12-18T03:50:39;78.25;;;42.70;;
22715;SDS011;11525;51.152;4.456;2022-12-18T03:56:11;70.93;;;41.25;;
22715;SDS011;11525;51.152;4.456;2022-12-18T03:58:38;81.55;;;43.50;;
22715;SDS011;11525;51.152;4.456;2022-12-18T04:01:06;75.18;;;41.78;;
22715;SDS011;11525;51.152;4.456;2022-12-18T04:03:35;81.75;;;44.92;;
22715;SDS011;11525;51.152;4.456;2022-12-18T04:06:02;79.07;;;42.08;;
22715;SDS011;11525;51.152;4.456;2022-12-18T04:08:30;73.15;;;41.28;;
22715;SDS011;11525;51.152;4.456;2022-12-18T04:10:56;77.60;;;41.42;;
22715;SDS011;11525;51.152;4.456;2022-12-18T04:13:23;62.92;;;37.90;;
22715;SDS011;11525;51.152;4.456;2022-12-18T04:15:54;67.15;;;38.80;;
22715;SDS011;11525;51.152;4.456;2022-12-18T04:18:20;67.80;;;39.38;;
22715;SDS011;11525;51.152;4.456;2022-12-18T04:20:45;67.53;;;39.88;;
22715;SDS011;11525;51.152;4.456;2022-12-18T04:23:11;66.80;;;39.40;;
22715;SDS011;11525;51.152;4.456;2022-12-18T04:25:37;65.15;;;39.30;;
22715;SDS011;11525;51.152;4.456;2022-12-18T04:28:03;65.45;;;37.55;;
22715;SDS011;11525;51.152;4.456;2022-12-18T04:30:29;65.07;;;37.03;;
22715;SDS011;11525;51.152;4.456;2022-12-18T04:32:55;67.63;;;36.35;;
22715;SDS011;11525;51.152;4.456;2022-12-18T04:35:21;71.63;;;36.35;;
22715;SDS011;11525;51.152;4.456;2022-12-18T04:37:46;67.38;;;37.35;;
22715;SDS011;11525;51.152;4.456;2022-12-18T04:40:12;63.95;;;36.33;;
22715;SDS011;11525;51.152;4.456;2022-12-18T04:42:39;65.13;;;36.47;;
22715;SDS011;11525;51.152;4.456;2022-12-18T04:45:05;60.30;;;35.33;;
22715;SDS011;11525;51.152;4.456;2022-12-18T04:47:32;62.80;;;36.63;;
22715;SDS011;11525;51.152;4.456;2022-12-18T04:49:58;58.40;;;36.35;;
22715;SDS011;11525;51.152;4.456;2022-12-18T04:52:23;60.70;;;36.53;;
22715;SDS011;11525;51.152;4.456;2022-12-18T04:54:49;62.13;;;37.00;;
22715;SDS011;11525;51.152;4.456;2022-12-18T04:57:15;63.30;;;36.63;;
22715;SDS011;11525;51.152;4.456;2022-12-18T04:59:43;60.63;;;35.75;;
22715;SDS011;11525;51.152;4.456;2022-12-18T05:02:09;64.07;;;36.13;;
22715;SDS011;11525;51.152;4.456;2022-12-18T05:04:34;65.25;;;36.75;;
22715;SDS011;11525;51.152;4.456;2022-12-18T05:07:00;64.22;;;37.33;;
22715;SDS011;11525;51.152;4.456;2022-12-18T05:09:26;63.70;;;35.75;;
22715;SDS011;11525;51.152;4.456;2022-12-18T05:11:52;66.22;;;37.72;;
22715;SDS011;11525;51.152;4.456;2022-12-18T05:14:18;62.70;;;37.83;;
22715;SDS011;11525;51.152;4.456;2022-12-18T05:16:45;62.72;;;37.10;;
22715;SDS011;11525;51.152;4.456;2022-12-18T05:19:10;62.45;;;37.70;;
22715;SDS011;11525;51.152;4.456;2022-12-18T05:21:36;60.63;;;36.72;;
22715;SDS011;11525;51.152;4.456;2022-12-18T05:24:02;65.35;;;36.60;;
22715;SDS011;11525;51.152;4.456;2022-12-18T05:26:28;58.55;;;35.80;;
22715;SDS011;11525;51.152;4.456;2022-12-18T05:28:57;59.28;;;34.70;;
22715;SDS011;11525;51.152;4.456;2022-12-18T05:31:22;62.40;;;35.65;;
22715;SDS011;11525;51.152;4.456;2022-12-18T05:33:48;57.83;;;34.75;;
22715;SDS011;11525;51.152;4.456;2022-12-18T05:36:14;61.50;;;35.38;;
22715;SDS011;11525;51.152;4.456;2022-12-18T05:38:40;59.20;;;34.22;;
22715;SDS011;11525;51.152;4.456;2022-12-18T05:41:06;54.67;;;34.25;;
22715;SDS011;11525;51.152;4.456;2022-12-18T05:43:34;54.22;;;33.28;;
22715;SDS011;11525;51.152;4.456;2022-12-18T05:46:08;59.05;;;32.58;;
22715;SDS011;11525;51.152;4.456;2022-12-18T05:48:37;55.97;;;32.75;;
22715;SDS011;11525;51.152;4.456;2022-12-18T05:51:05;56.47;;;33.38;;
22715;SDS011;11525;51.152;4.456;2022-12-18T05:53:32;54.25;;;33.78;;
22715;SDS011;11525;51.152;4.456;2022-12-18T05:56:02;53.90;;;32.53;;
22715;SDS011;11525;51.152;4.456;2022-12-18T05:58:30;57.42;;;33.17;;
22715;SDS011;11525;51.152;4.456;2022-12-18T06:00:56;56.22;;;33.25;;
22715;SDS011;11525;51.152;4.456;2022-12-18T06:03:21;48.90;;;30.73;;
22715;SDS011;11525;51.152;4.456;2022-12-18T06:05:47;48.95;;;30.48;;
22715;SDS011;11525;51.152;4.456;2022-12-18T06:08:13;50.55;;;30.95;;
22715;SDS011;11525;51.152;4.456;2022-12-18T06:10:40;54.03;;;33.25;;
22715;SDS011;11525;51.152;4.456;2022-12-18T06:13:06;51.90;;;31.20;;
22715;SDS011;11525;51.152;4.456;2022-12-18T06:15:35;52.97;;;30.73;;
22715;SDS011;11525;51.152;4.456;2022-12-18T06:18:01;53.47;;;31.23;;
22715;SDS011;11525;51.152;4.456;2022-12-18T06:20:28;48.95;;;30.58;;
22715;SDS011;11525;51.152;4.456;2022-12-18T06:22:53;53.25;;;31.30;;
22715;SDS011;11525;51.152;4.456;2022-12-18T06:25:23;49.70;;;30.77;;
22715;SDS011;11525;51.152;4.456;2022-12-18T06:27:51;48.75;;;30.25;;
22715;SDS011;11525;51.152;4.456;2022-12-18T06:30:17;46.42;;;30.25;;
22715;SDS011;11525;51.152;4.456;2022-12-18T06:32:42;48.47;;;31.63;;
22715;SDS011;11525;51.152;4.456;2022-12-18T06:35:08;45.78;;;29.60;;
22715;SDS011;11525;51.152;4.456;2022-12-18T06:37:34;50.97;;;29.98;;
22715;SDS011;11525;51.152;4.456;2022-12-18T06:40:00;47.67;;;29.48;;
22715;SDS011;11525;51.152;4.456;2022-12-18T06:42:26;47.08;;;29.10;;
22715;SDS011;11525;51.152;4.456;2022-12-18T06:44:56;48.35;;;29.70;;
22715;SDS011;11525;51.152;4.456;2022-12-18T06:47:22;54.17;;;30.67;;
22715;SDS011;11525;51.152;4.456;2022-12-18T06:49:48;44.70;;;28.83;;
22715;SDS011;11525;51.152;4.456;2022-12-18T06:52:14;47.20;;;30.08;;
22715;SDS011;11525;51.152;4.456;2022-12-18T06:54:40;46.42;;;29.77;;
22715;SDS011;11525;51.152;4.456;2022-12-18T06:57:06;46.17;;;29.05;;
22715;SDS011;11525;51.152;4.456;2022-12-18T06:59:32;46.05;;;28.00;;
22715;SDS011;11525;51.152;4.456;2022-12-18T07:01:58;49.40;;;28.65;;
22715;SDS011;11525;51.152;4.456;2022-12-18T07:04:27;52.30;;;31.25;;
22715;SDS011;11525;51.152;4.456;2022-12-18T07:06:54;46.72;;;30.73;;
22715;SDS011;11525;51.152;4.456;2022-12-18T07:09:20;46.22;;;30.15;;
22715;SDS011;11525;51.152;4.456;2022-12-18T07:11:46;46.92;;;29.08;;
22715;SDS011;11525;51.152;4.456;2022-12-18T07:14:12;49.90;;;29.33;;
22715;SDS011;11525;51.152;4.456;2022-12-18T07:16:38;45.65;;;29.55;;
22715;SDS011;11525;51.152;4.456;2022-12-18T07:19:04;44.83;;;27.23;;
22715;SDS011;11525;51.152;4.456;2022-12-18T07:21:30;43.05;;;28.30;;
22715;SDS011;11525;51.152;4.456;2022-12-18T07:23:55;41.22;;;28.25;;
22715;SDS011;11525;51.152;4.456;2022-12-18T07:26:22;44.63;;;28.35;;
22715;SDS011;11525;51.152;4.456;2022-12-18T07:28:48;43.38;;;28.92;;
22715;SDS011;11525;51.152;4.456;2022-12-18T07:31:15;44.28;;;29.00;;
22715;SDS011;11525;51.152;4.456;2022-12-18T07:33:46;42.17;;;28.00;;
22715;SDS011;11525;51.152;4.456;2022-12-18T07:36:12;49.20;;;28.60;;
22715;SDS011;11525;51.152;4.456;2022-12-18T07:38:39;40.60;;;26.65;;
22715;SDS011;11525;51.152;4.456;2022-12-18T07:41:06;39.45;;;27.30;;
22715;SDS011;11525;51.152;4.456;2022-12-18T07:43:34;44.03;;;28.23;;
22715;SDS011;11525;51.152;4.456;2022-12-18T07:46:00;46.15;;;28.38;;
22715;SDS011;11525;51.152;4.456;2022-12-18T07:48:27;45.13;;;28.27;;
22715;SDS011;11525;51.152;4.456;2022-12-18T07:50:53;44.80;;;27.75;;
22715;SDS011;11525;51.152;4.456;2022-12-18T07:53:22;45.78;;;27.92;;
22715;SDS011;11525;51.152;4.456;2022-12-18T07:55:48;39.47;;;25.48;;
22715;SDS011;11525;51.152;4.456;2022-12-18T07:58:14;36.83;;;24.35;;
22715;SDS011;11525;51.152;4.456;2022-12-18T08:00:39;37.70;;;24.13;;
22715;SDS011;11525;51.152;4.456;2022-12-18T08:03:05;45.95;;;25.05;;
22715;SDS011;11525;51.152;4.456;2022-12-18T08:05:31;43.90;;;26.52;;
22715;SDS011;11525;51.152;4.456;2022-12-18T08:07:57;40.95;;;26.90;;
22715;SDS011;11525;51.152;4.456;2022-12-18T08:10:23;39.38;;;25.20;;
22715;SDS011;11525;51.152;4.456;2022-12-18T08:12:49;41.33;;;25.73;;
22715;SDS011;11525;51.152;4.456;2022-12-18T08:15:16;43.47;;;27.27;;
22715;SDS011;11525;51.152;4.456;2022-12-18T08:17:42;42.92;;;27.65;;
22715;SDS011;11525;51.152;4.456;2022-12-18T08:20:08;40.33;;;26.92;;
22715;SDS011;11525;51.152;4.456;2022-12-18T08:22:34;41.70;;;26.10;;
22715;SDS011;11525;51.152;4.456;2022-12-18T08:25:03;40.03;;;26.17;;
22715;SDS011;11525;51.152;4.456;2022-12-18T08:27:29;36.33;;;25.40;;
22715;SDS011;11525;51.152;4.456;2022-12-18T08:29:55;38.53;;;24.88;;
22715;SDS011;11525;51.152;4.456;2022-12-18T08:32:22;36.83;;;24.42;;
22715;SDS011;11525;51.152;4.456;2022-12-18T08:34:48;40.72;;;25.00;;
22715;SDS011;11525;51.152;4.456;2022-12-18T08:37:14;39.05;;;26.63;;
22715;SDS011;11525;51.152;4.456;2022-12-18T08:39:40;33.83;;;23.77;;
22715;SDS011;11525;51.152;4.456;2022-12-18T08:42:18;36.47;;;25.13;;
22715;SDS011;11525;51.152;4.456;2022-12-18T08:45:03;32.85;;;23.38;;
22715;SDS011;11525;51.152;4.456;2022-12-18T08:47:29;35.67;;;24.27;;
22715;SDS011;11525;51.152;4.456;2022-12-18T08:50:00;31.38;;;21.83;;
22715;SDS011;11525;51.152;4.456;2022-12-18T08:52:26;35.95;;;23.63;;
22715;SDS011;11525;51.152;4.456;2022-12-18T08:54:53;31.50;;;21.45;;
22715;SDS011;11525;51.152;4.456;2022-12-18T08:57:19;35.65;;;23.00;;
22715;SDS011;11525;51.152;4.456;2022-12-18T08:59:56;31.70;;;22.52;;
22715;SDS011;11525;51.152;4.456;2022-12-18T09:02:22;34.20;;;22.58;;
22715;SDS011;11525;51.152;4.456;2022-12-18T09:04:48;31.88;;;22.80;;
22715;SDS011;11525;51.152;4.456;2022-12-18T09:07:14;34.83;;;22.58;;
22715;SDS011;11525;51.152;4.456;2022-12-18T09:09:40;30.90;;;22.45;;
22715;SDS011;11525;51.152;4.456;2022-12-18T09:12:06;32.20;;;22.45;;
22715;SDS011;11525;51.152;4.456;2022-12-18T09:14:31;32.88;;;22.08;;
22715;SDS011;11525;51.152;4.456;2022-12-18T09:16:57;30.40;;;22.45;;
22715;SDS011;11525;51.152;4.456;2022-12-18T09:19:23;34.00;;;24.23;;
22715;SDS011;11525;51.152;4.456;2022-12-18T09:21:52;30.25;;;21.88;;
22715;SDS011;11525;51.152;4.456;2022-12-18T09:24:18;31.88;;;21.83;;
22715;SDS011;11525;51.152;4.456;2022-12-18T09:26:46;32.40;;;23.48;;
22715;SDS011;11525;51.152;4.456;2022-12-18T09:29:12;29.65;;;21.92;;
22715;SDS011;11525;51.152;4.456;2022-12-18T09:31:41;32.65;;;23.83;;
22715;SDS011;11525;51.152;4.456;2022-12-18T09:34:07;31.33;;;22.38;;
22715;SDS011;11525;51.152;4.456;2022-12-18T09:36:37;34.70;;;23.15;;
22715;SDS011;11525;51.152;4.456;2022-12-18T09:39:06;31.63;;;21.83;;
